createdAt,value
2023-08-14T00:50:21.902Z,87
2023-08-14T01:20:22.495Z,88
2023-08-14T01:30:22.685Z,88
2023-08-14T01:40:22.899Z,88
2023-08-14T02:00:23.273Z,89
2023-08-14T02:10:23.480Z,89
2023-08-14T02:20:23.670Z,89
2023-08-14T02:40:24.063Z,89
2023-08-14T02:50:24.298Z,90
2023-08-14T03:00:24.468Z,90
2023-08-14T03:10:24.666Z,90
2023-08-14T03:20:24.845Z,90
2023-08-14T03:30:25.051Z,90
2023-08-14T03:40:25.267Z,90
2023-08-14T03:50:25.462Z,90
2023-08-14T04:00:25.652Z,90
2023-08-14T04:10:25.836Z,90
2023-08-14T04:20:26.039Z,90
2023-08-14T04:30:26.246Z,90
2023-08-14T04:40:26.429Z,91
2023-08-14T04:50:26.625Z,91
2023-08-14T05:00:26.853Z,91
2023-08-14T05:10:27.043Z,91
2023-08-14T05:30:27.400Z,91
2023-08-14T05:40:27.614Z,91
2023-08-14T05:50:27.812Z,91
2023-08-14T06:00:27.994Z,92
2023-08-14T06:10:28.193Z,92
2023-08-14T06:30:28.583Z,91
2023-08-14T06:40:28.785Z,91
2023-08-14T06:50:28.992Z,91
2023-08-14T07:00:29.187Z,90
2023-08-14T07:10:29.369Z,91
2023-08-14T07:20:29.561Z,90
2023-08-14T07:40:29.960Z,90
2023-08-14T07:50:30.203Z,90
2023-08-14T08:00:30.348Z,90
2023-08-14T08:30:30.903Z,89
2023-08-14T08:40:31.094Z,89
2023-08-14T08:50:31.293Z,87
2023-08-14T09:40:32.261Z,78
2023-08-14T09:50:32.465Z,76
2023-08-14T10:00:32.698Z,73
2023-08-14T10:10:32.859Z,71
2023-08-14T10:20:33.034Z,70
2023-08-14T10:30:33.261Z,68
2023-08-14T10:40:33.427Z,66
2023-08-14T11:00:33.807Z,62
2023-08-14T11:10:34.002Z,61
2023-08-14T11:20:34.183Z,60
2023-08-14T11:30:34.378Z,59
2023-08-14T11:40:34.570Z,59
2023-08-14T11:50:34.766Z,58
2023-08-14T12:00:34.983Z,58
2023-08-14T12:10:35.164Z,58
2023-08-14T12:20:35.409Z,56
2023-08-14T12:30:35.538Z,56
2023-08-14T12:40:35.752Z,56
2023-08-14T12:50:35.954Z,55
2023-08-14T13:00:36.104Z,55
2023-08-14T13:10:36.298Z,54
2023-08-14T13:20:36.503Z,54
2023-08-14T13:30:36.779Z,55
2023-08-14T13:40:36.909Z,55
2023-08-14T13:50:37.063Z,55
2023-08-14T14:00:37.268Z,55
2023-08-14T14:10:37.642Z,55
2023-08-14T14:20:37.639Z,55
2023-08-14T14:30:37.837Z,55
2023-08-14T14:40:38.028Z,54
2023-08-14T14:50:38.227Z,54
2023-08-14T15:00:38.415Z,55
2023-08-14T15:10:38.607Z,56
2023-08-14T15:20:38.796Z,56
2023-08-14T15:30:39.048Z,57
2023-08-14T15:40:39.195Z,58
2023-08-14T15:50:39.366Z,59
2023-08-14T16:00:39.592Z,60
2023-08-14T16:10:39.764Z,61
2023-08-14T16:20:39.953Z,62
2023-08-14T16:30:40.156Z,63
2023-08-14T16:40:40.342Z,63
2023-08-14T16:50:40.528Z,65
2023-08-14T17:00:40.734Z,65
2023-08-14T17:10:40.906Z,66
2023-08-14T17:20:41.092Z,67
2023-08-14T17:30:41.293Z,67
2023-08-14T17:50:41.699Z,68
2023-08-14T18:00:41.932Z,68
2023-08-14T18:10:42.062Z,69
2023-08-14T18:20:42.258Z,70
2023-08-14T18:30:42.452Z,70
2023-08-14T18:40:42.643Z,70
2023-08-14T19:20:43.418Z,73
2023-08-14T19:30:45.153Z,74
2023-08-14T19:40:43.794Z,75
2023-08-14T19:50:43.975Z,75
2023-08-14T20:00:44.213Z,76
2023-08-14T20:50:45.156Z,78
2023-08-14T21:00:45.332Z,77
2023-08-14T21:30:45.996Z,78
2023-08-14T22:00:46.499Z,78
2023-08-14T22:10:46.738Z,78
2023-08-14T22:30:47.076Z,79
2023-08-14T22:40:47.247Z,79
2023-08-14T22:50:47.467Z,79
2023-08-14T23:10:47.830Z,80
2023-08-14T23:20:48.037Z,80
2023-08-14T23:30:48.234Z,81
2023-08-14T23:40:48.422Z,81
2023-08-14T23:50:48.606Z,82
